createdAt,value
2022-08-18T00:01:48.537Z,8.82
2022-08-18T00:04:34.960Z,6.85
2022-08-18T00:07:02.188Z,7.25
2022-08-18T00:09:32.169Z,5.95
2022-08-18T00:12:02.233Z,4.78
2022-08-18T00:14:28.813Z,6.57
2022-08-18T00:16:55.455Z,6.32
2022-08-18T00:19:43.561Z,5.05
2022-08-18T00:22:14.833Z,8.25
2022-08-18T00:24:48.246Z,5.05
2022-08-18T00:27:17.186Z,5.65
2022-08-18T00:29:43.813Z,6.90
2022-08-18T00:32:19.712Z,6.68
2022-08-18T00:34:46.520Z,5.35
2022-08-18T00:37:12.975Z,7.03
2022-08-18T00:39:43.513Z,4.55
2022-08-18T00:42:14.587Z,4.63
2022-08-18T00:44:56.120Z,5.15
2022-08-18T00:47:36.471Z,6.03
2022-08-18T00:50:16.098Z,4.72
2022-08-18T00:52:47.886Z,5.90
2022-08-18T00:55:17.936Z,6.43
2022-08-18T00:57:44.554Z,6.18
2022-08-18T01:00:13.133Z,5.60
2022-08-18T01:02:44.817Z,7.90
2022-08-18T01:05:35.226Z,4.63
2022-08-18T01:08:02.743Z,6.97
2022-08-18T01:10:32.824Z,8.63
2022-08-18T01:12:59.355Z,7.90
2022-08-18T01:15:30.457Z,12.38
2022-08-18T01:18:23.466Z,11.60
2022-08-18T01:21:47.990Z,11.75
2022-08-18T01:24:19.812Z,10.57
2022-08-18T01:26:51.960Z,9.80
2022-08-18T01:29:19.830Z,9.30
2022-08-18T01:31:56.099Z,9.70
2022-08-18T01:34:27.430Z,13.25
2022-08-18T01:36:54.877Z,13.82
2022-08-18T01:41:23.344Z,10.07
2022-08-18T01:42:08.695Z,10.80
2022-08-18T01:44:35.257Z,11.75
2022-08-18T01:47:01.772Z,13.60
2022-08-18T01:49:31.084Z,11.70
2022-08-18T01:51:57.524Z,15.07
2022-08-18T01:54:24.079Z,8.90
2022-08-18T01:56:53.355Z,10.77
2022-08-18T01:59:19.822Z,11.60
2022-08-18T02:01:52.823Z,9.45
2022-08-18T02:07:07.410Z,10.30
2022-08-18T02:09:34.387Z,9.95
2022-08-18T02:12:01.293Z,12.32
2022-08-18T02:14:27.903Z,11.77
2022-08-18T02:17:02.202Z,13.57
2022-08-18T02:19:44.505Z,12.18
2022-08-18T02:22:16.145Z,11.88
2022-08-18T02:24:43.338Z,13.95
2022-08-18T02:27:12.015Z,12.13
2022-08-18T02:29:39.164Z,9.45
2022-08-18T02:32:06.229Z,11.95
2022-08-18T02:34:32.753Z,9.60
2022-08-18T02:37:00.440Z,12.43
2022-08-18T02:39:28.291Z,11.38
2022-08-18T02:41:54.935Z,10.20
2022-08-18T02:44:21.373Z,11.57
2022-08-18T02:46:52.109Z,10.00
2022-08-18T02:49:19.392Z,11.93
2022-08-18T02:51:46.349Z,12.48
2022-08-18T02:54:13.037Z,14.23
2022-08-18T02:56:41.314Z,8.57
2022-08-18T02:59:17.726Z,9.23
2022-08-18T03:01:47.888Z,7.78
2022-08-18T03:04:22.057Z,9.35
2022-08-18T03:06:52.060Z,13.20
2022-08-18T03:09:18.865Z,9.88
2022-08-18T03:11:45.605Z,9.02
2022-08-18T03:14:12.638Z,9.20
2022-08-18T03:16:52.651Z,10.82
2022-08-18T03:19:31.867Z,11.77
2022-08-18T03:22:02.834Z,11.55
2022-08-18T03:24:31.689Z,10.60
2022-08-18T03:27:00.059Z,12.00
2022-08-18T03:29:31.697Z,13.90
2022-08-18T03:32:00.650Z,11.10
2022-08-18T03:34:30.409Z,10.73
2022-08-18T03:36:57.116Z,12.10
2022-08-18T03:39:24.912Z,10.63
2022-08-18T03:44:34.127Z,9.55
2022-08-18T03:47:04.453Z,10.35
2022-08-18T03:49:33.458Z,9.70
2022-08-18T03:52:00.842Z,11.43
2022-08-18T03:54:31.008Z,10.05
2022-08-18T03:56:58.229Z,9.77
2022-08-18T03:59:26.909Z,13.65
2022-08-18T04:01:55.228Z,9.13
2022-08-18T04:04:25.344Z,9.25
2022-08-18T04:06:58.448Z,8.65
2022-08-18T04:09:27.849Z,10.35
2022-08-18T04:11:54.892Z,9.63
2022-08-18T04:14:29.842Z,11.52
2022-08-18T04:16:57.348Z,8.93
2022-08-18T04:19:27.334Z,14.90
2022-08-18T04:21:58.371Z,13.80
2022-08-18T04:24:31.919Z,12.52
2022-08-18T04:27:01.508Z,10.60
2022-08-18T04:29:28.801Z,10.25
2022-08-18T04:31:56.092Z,7.43
2022-08-18T04:34:23.313Z,10.20
2022-08-18T04:36:53.987Z,7.78
2022-08-18T04:39:22.020Z,8.48
2022-08-18T04:41:49.476Z,11.77
2022-08-18T04:44:17.548Z,9.40
2022-08-18T04:46:52.940Z,9.07
2022-08-18T04:49:22.355Z,11.63
2022-08-18T04:52:22.632Z,8.88
2022-08-18T04:54:56.947Z,7.75
2022-08-18T04:57:24.133Z,8.23
2022-08-18T04:59:52.488Z,8.93
2022-08-18T05:02:21.159Z,10.52
2022-08-18T05:04:50.649Z,11.35
2022-08-18T05:07:21.050Z,9.18
2022-08-18T05:09:47.832Z,9.20
2022-08-18T05:12:15.903Z,8.25
2022-08-18T05:14:46.752Z,8.65
2022-08-18T05:17:16.318Z,9.65
2022-08-18T05:19:44.635Z,8.13
2022-08-18T05:22:17.669Z,7.90
2022-08-18T05:24:45.950Z,9.55
2022-08-18T05:27:13.548Z,9.95
2022-08-18T05:29:41.885Z,10.60
2022-08-18T05:32:30.375Z,13.75
2022-08-18T05:35:12.434Z,6.30
2022-08-18T05:38:15.505Z,10.07
2022-08-18T05:40:45.669Z,6.95
2022-08-18T05:43:15.200Z,9.05
2022-08-18T05:45:42.181Z,8.35
2022-08-18T05:48:08.574Z,7.65
2022-08-18T05:50:37.232Z,7.97
2022-08-18T05:53:14.646Z,11.15
2022-08-18T05:56:22.236Z,6.60
2022-08-18T05:58:55.636Z,11.20
2022-08-18T06:01:27.446Z,11.07
2022-08-18T06:04:02.111Z,8.20
2022-08-18T06:06:31.414Z,8.77
2022-08-18T06:09:10.724Z,8.52
2022-08-18T06:11:37.395Z,8.63
2022-08-18T06:14:04.244Z,8.35
2022-08-18T06:17:05.967Z,6.80
2022-08-18T06:19:44.408Z,8.65
2022-08-18T06:22:16.909Z,7.10
2022-08-18T06:25:06.733Z,7.60
2022-08-18T06:28:01.052Z,6.75
2022-08-18T06:30:41.179Z,7.53
2022-08-18T06:33:29.617Z,8.88
2022-08-18T06:36:02.785Z,6.53
2022-08-18T06:38:59.913Z,8.88
2022-08-18T06:41:43.845Z,9.75
2022-08-18T06:44:17.080Z,7.05
2022-08-18T06:47:05.366Z,10.43
2022-08-18T06:49:54.842Z,7.50
2022-08-18T06:52:22.767Z,8.93
2022-08-18T06:54:51.581Z,6.95
2022-08-18T06:57:34.496Z,6.47
2022-08-18T07:00:20.801Z,5.72
2022-08-18T07:02:54.902Z,9.20
2022-08-18T07:05:27.195Z,7.53
2022-08-18T07:08:21.296Z,5.15
2022-08-18T07:10:51.043Z,6.50
2022-08-18T07:13:27.266Z,9.80
2022-08-18T07:16:15.817Z,7.60
2022-08-18T07:18:45.177Z,6.60
2022-08-18T07:21:31.549Z,7.50
2022-08-18T07:24:24.221Z,9.73
2022-08-18T07:27:19.717Z,7.82
2022-08-18T07:30:05.852Z,6.72
2022-08-18T07:32:40.397Z,6.00
2022-08-18T07:35:09.355Z,6.32
2022-08-18T07:37:45.558Z,8.23
2022-08-18T07:40:21.936Z,5.82
2022-08-18T07:43:01.215Z,6.18
2022-08-18T07:45:42.395Z,6.20
2022-08-18T07:48:38.057Z,7.88
2022-08-18T07:51:44.016Z,6.05
2022-08-18T07:54:55.097Z,3.88
2022-08-18T07:57:35.362Z,5.40
2022-08-18T08:00:35.080Z,5.07
2022-08-18T08:03:30.642Z,4.78
2022-08-18T08:06:03.087Z,4.22
2022-08-18T08:08:32.535Z,5.15
2022-08-18T08:11:13.382Z,5.20
2022-08-18T08:14:17.099Z,2.95
2022-08-18T08:16:49.394Z,7.10
2022-08-18T08:20:01.486Z,4.85
2022-08-18T08:22:39.919Z,3.90
2022-08-18T08:25:45.833Z,6.72
2022-08-18T08:28:22.893Z,3.05
2022-08-18T08:31:37.186Z,4.22
2022-08-18T08:34:14.046Z,2.80
2022-08-18T08:36:44.988Z,4.72
2022-08-18T08:39:28.617Z,3.47
2022-08-18T08:42:33.653Z,4.55
2022-08-18T08:45:16.518Z,4.32
2022-08-18T08:48:14.471Z,3.30
2022-08-18T08:50:53.369Z,3.45
2022-08-18T08:53:27.174Z,2.92
2022-08-18T08:56:02.655Z,4.78
2022-08-18T08:58:38.430Z,4.55
2022-08-18T09:01:06.023Z,5.35
2022-08-18T09:03:42.998Z,5.07
2022-08-18T09:06:19.982Z,2.85
2022-08-18T09:09:01.458Z,3.92
2022-08-18T09:12:04.764Z,3.60
2022-08-18T09:14:50.365Z,3.35
2022-08-18T09:17:47.363Z,4.22
2022-08-18T09:20:29.791Z,4.75
2022-08-18T09:23:13.470Z,4.18
2022-08-18T09:25:41.726Z,4.18
2022-08-18T09:28:11.991Z,3.90
2022-08-18T09:30:53.076Z,3.00
2022-08-18T09:33:24.819Z,5.60
2022-08-18T09:36:18.483Z,6.20
2022-08-18T09:39:20.624Z,3.60
2022-08-18T09:44:49.196Z,3.15
2022-08-18T09:53:32.298Z,4.95
2022-08-18T09:56:05.053Z,4.55
2022-08-18T09:58:55.592Z,3.40
2022-08-18T10:01:34.354Z,5.18
2022-08-18T10:04:14.627Z,2.85
2022-08-18T10:06:48.245Z,2.75
2022-08-18T10:12:31.767Z,2.00
2022-08-18T10:15:12.623Z,2.90
2022-08-18T10:18:06.418Z,4.38
2022-08-18T10:20:39.478Z,2.20
2022-08-18T10:23:09.793Z,3.80
2022-08-18T10:25:48.822Z,3.65
2022-08-18T10:29:00.691Z,3.42
2022-08-18T10:31:29.139Z,4.30
2022-08-18T10:34:16.043Z,5.10
2022-08-18T10:36:53.227Z,3.40
2022-08-18T10:42:31.723Z,3.08
2022-08-18T10:45:24.850Z,3.78
2022-08-18T10:48:17.185Z,3.67
2022-08-18T10:50:50.395Z,3.10
2022-08-18T10:53:45.415Z,3.30
2022-08-18T10:56:33.561Z,2.63
2022-08-18T10:59:16.494Z,3.05
2022-08-18T11:01:59.430Z,4.60
2022-08-18T11:04:41.249Z,4.07
2022-08-18T11:07:12.055Z,3.42
2022-08-18T11:09:42.087Z,5.13
2022-08-18T11:12:12.203Z,4.65
2022-08-18T11:18:10.702Z,4.65
2022-08-18T11:20:39.516Z,2.30
2022-08-18T11:23:16.995Z,3.33
2022-08-18T11:25:44.884Z,2.72
2022-08-18T11:28:20.082Z,2.00
2022-08-18T11:30:55.049Z,2.72
2022-08-18T11:33:24.636Z,3.65
2022-08-18T11:35:59.408Z,2.60
2022-08-18T11:38:31.668Z,1.70
2022-08-18T11:41:18.664Z,1.42
2022-08-18T11:46:28.180Z,2.08
2022-08-18T11:48:59.645Z,3.28
2022-08-18T11:51:29.530Z,1.17
2022-08-18T11:54:00.163Z,2.95
2022-08-18T11:56:37.835Z,3.00
2022-08-18T11:59:53.897Z,3.22
2022-08-18T12:02:24.784Z,3.08
2022-08-18T12:04:56.967Z,2.95
2022-08-18T12:07:34.290Z,2.70
2022-08-18T12:10:26.505Z,3.25
2022-08-18T12:12:59.590Z,1.10
2022-08-18T12:18:25.964Z,3.30
2022-08-18T12:20:59.103Z,1.58
2022-08-18T12:23:26.042Z,2.92
2022-08-18T12:25:52.551Z,2.20
2022-08-18T12:28:22.386Z,2.15
2022-08-18T12:30:56.745Z,2.10
2022-08-18T12:36:11.223Z,1.83
2022-08-18T12:38:43.492Z,1.55
2022-08-18T12:41:11.995Z,2.75
2022-08-18T12:43:39.942Z,2.70
2022-08-18T12:46:12.020Z,4.47
2022-08-18T12:48:39.067Z,2.65
2022-08-18T12:51:07.272Z,1.60
2022-08-18T12:53:58.505Z,1.90
2022-08-18T12:56:31.026Z,4.43
2022-08-18T12:59:00.444Z,2.83
2022-08-18T13:01:32.536Z,2.05
2022-08-18T13:07:00.676Z,4.60
2022-08-18T13:09:35.606Z,4.20
2022-08-18T13:12:19.620Z,2.20
2022-08-18T13:14:47.585Z,3.55
2022-08-18T13:17:33.308Z,1.92
2022-08-18T13:20:07.601Z,2.35
2022-08-18T13:25:05.491Z,1.40
2022-08-18T13:27:33.076Z,3.13
2022-08-18T13:30:16.714Z,2.67
2022-08-18T13:32:58.928Z,2.53
2022-08-18T13:35:29.933Z,2.55
2022-08-18T13:38:06.723Z,2.20
2022-08-18T13:40:46.973Z,2.33
2022-08-18T13:43:15.733Z,3.60
2022-08-18T13:45:48.000Z,3.30
2022-08-18T13:48:19.327Z,3.10
2022-08-18T13:50:46.291Z,2.15
2022-08-18T13:53:16.309Z,2.08
2022-08-18T13:55:43.528Z,3.08
2022-08-18T13:58:20.274Z,1.67
2022-08-18T14:00:47.874Z,2.53
2022-08-18T14:03:20.376Z,3.20
2022-08-18T14:06:01.595Z,3.03
2022-08-18T14:08:29.225Z,3.40
2022-08-18T14:11:00.642Z,5.28
2022-08-18T14:13:28.466Z,3.13
2022-08-18T14:15:57.162Z,3.88
2022-08-18T14:18:29.160Z,2.15
2022-08-18T14:21:16.968Z,3.92
2022-08-18T14:24:10.595Z,2.30
2022-08-18T14:26:50.898Z,2.45
2022-08-18T14:29:46.428Z,4.80
2022-08-18T14:32:06.167Z,2.95
2022-08-18T14:34:33.090Z,3.28
2022-08-18T14:36:59.839Z,4.57
2022-08-18T14:39:27.517Z,2.42
2022-08-18T14:41:56.188Z,4.13
2022-08-18T14:44:24.359Z,2.50
2022-08-18T14:46:54.687Z,2.72
2022-08-18T14:49:28.756Z,2.28
2022-08-18T14:51:57.904Z,1.65
2022-08-18T14:54:28.651Z,2.50
2022-08-18T14:56:58.544Z,4.80
2022-08-18T14:59:25.507Z,2.22
2022-08-18T15:01:52.386Z,5.32
2022-08-18T15:04:20.944Z,2.05
2022-08-18T15:09:27.462Z,2.47
2022-08-18T15:11:56.302Z,2.50
2022-08-18T15:14:33.287Z,2.30
2022-08-18T15:17:11.744Z,4.72
2022-08-18T15:22:45.057Z,2.15
2022-08-18T15:25:30.608Z,1.77
2022-08-18T15:27:58.750Z,1.80
2022-08-18T15:30:25.305Z,2.97
2022-08-18T15:32:52.066Z,1.67
2022-08-18T15:35:19.620Z,3.65
2022-08-18T15:37:54.441Z,3.05
2022-08-18T15:40:30.876Z,5.68
2022-08-18T15:43:10.098Z,2.97
2022-08-18T15:45:42.925Z,2.45
2022-08-18T15:48:20.096Z,1.23
2022-08-18T15:50:51.236Z,3.25
2022-08-18T15:53:29.670Z,4.00
2022-08-18T15:55:57.506Z,1.25
2022-08-18T15:58:26.777Z,3.22
2022-08-18T16:00:55.264Z,1.30
2022-08-18T16:03:21.914Z,5.72
2022-08-18T16:05:54.096Z,2.40
2022-08-18T16:08:23.504Z,1.70
2022-08-18T16:10:50.696Z,2.85
2022-08-18T16:13:17.567Z,1.55
2022-08-18T16:15:48.249Z,1.85
2022-08-18T16:18:20.784Z,2.28
2022-08-18T16:20:47.365Z,3.70
2022-08-18T16:23:14.395Z,2.53
2022-08-18T16:25:41.979Z,1.88
2022-08-18T16:28:09.132Z,2.50
2022-08-18T16:30:36.320Z,2.03
2022-08-18T16:33:05.977Z,3.53
2022-08-18T16:35:33.397Z,3.70
2022-08-18T16:38:08.754Z,2.88
2022-08-18T16:40:37.464Z,2.25
2022-08-18T16:43:04.922Z,1.80
2022-08-18T16:45:36.643Z,1.55
2022-08-18T16:48:03.319Z,1.58
2022-08-18T16:50:30.006Z,1.48
2022-08-18T16:52:57.606Z,3.67
2022-08-18T16:55:24.114Z,2.78
2022-08-18T16:58:12.447Z,3.65
2022-08-18T17:01:00.549Z,2.08
2022-08-18T17:03:45.454Z,2.25
2022-08-18T17:06:14.593Z,2.05
2022-08-18T17:08:42.803Z,2.97
2022-08-18T17:11:13.775Z,2.53
2022-08-18T17:13:41.677Z,3.72
2022-08-18T17:16:09.436Z,1.65
2022-08-18T17:18:36.908Z,2.70
2022-08-18T17:23:38.893Z,2.60
2022-08-18T17:26:09.374Z,2.95
2022-08-18T17:28:50.477Z,4.32
2022-08-18T17:31:22.540Z,3.42
2022-08-18T17:33:49.288Z,3.03
2022-08-18T17:36:22.479Z,3.03
2022-08-18T17:38:59.958Z,2.92
2022-08-18T17:41:27.703Z,2.33
2022-08-18T17:44:00.770Z,3.63
2022-08-18T17:46:33.374Z,3.28
2022-08-18T17:49:03.728Z,2.38
2022-08-18T17:51:52.761Z,2.83
2022-08-18T17:54:32.251Z,3.75
2022-08-18T17:57:05.445Z,2.53
2022-08-18T17:59:45.300Z,2.72
2022-08-18T18:02:29.371Z,7.43
2022-08-18T18:04:58.801Z,4.90
2022-08-18T18:07:35.374Z,3.88
2022-08-18T18:10:09.557Z,5.13
2022-08-18T18:12:37.691Z,2.10
2022-08-18T18:15:09.713Z,4.68
2022-08-18T18:17:39.667Z,3.08
2022-08-18T18:20:15.637Z,3.35
2022-08-18T18:22:44.400Z,2.22
2022-08-18T18:25:13.359Z,4.13
2022-08-18T18:27:43.507Z,7.13
2022-08-18T18:30:16.975Z,2.97
2022-08-18T18:33:04.436Z,1.85
2022-08-18T18:35:56.967Z,4.32
2022-08-18T18:38:29.417Z,5.45
2022-08-18T18:41:01.905Z,4.50
2022-08-18T18:43:39.569Z,2.33
2022-08-18T18:46:09.474Z,3.40
2022-08-18T18:48:52.495Z,2.30
2022-08-18T18:51:57.394Z,5.00
2022-08-18T18:54:39.595Z,6.03
2022-08-18T18:57:36.204Z,5.72
2022-08-18T19:00:20.262Z,3.15
2022-08-18T19:03:10.571Z,3.78
2022-08-18T19:06:01.501Z,3.55
2022-08-18T19:08:54.158Z,4.10
2022-08-18T19:11:32.856Z,3.42
2022-08-18T19:14:09.872Z,5.78
2022-08-18T19:16:43.771Z,3.08
2022-08-18T19:19:36.781Z,2.60
2022-08-18T19:22:09.796Z,3.25
2022-08-18T19:24:42.629Z,7.43
2022-08-18T19:27:17.480Z,5.82
2022-08-18T19:29:52.630Z,5.63
2022-08-18T19:32:27.187Z,2.28
2022-08-18T19:34:55.795Z,3.88
2022-08-18T19:37:49.727Z,3.65
2022-08-18T19:40:24.019Z,3.17
2022-08-18T19:43:11.368Z,4.50
2022-08-18T19:45:59.244Z,4.55
2022-08-18T19:48:34.793Z,5.50
2022-08-18T19:51:35.678Z,3.22
2022-08-18T19:54:26.393Z,4.78
2022-08-18T19:57:24.129Z,2.83
2022-08-18T20:00:15.994Z,3.13
2022-08-18T20:03:19.538Z,3.60
2022-08-18T20:06:34.404Z,2.72
2022-08-18T20:09:24.028Z,3.72
2022-08-18T20:12:07.758Z,5.43
2022-08-18T20:14:39.262Z,3.28
2022-08-18T20:17:22.576Z,2.92
2022-08-18T20:19:55.022Z,3.03
2022-08-18T20:22:24.891Z,7.38
2022-08-18T20:24:54.322Z,3.78
2022-08-18T20:27:32.808Z,3.83
2022-08-18T20:30:20.620Z,4.13
2022-08-18T20:33:06.354Z,4.60
2022-08-18T20:35:57.514Z,4.80
2022-08-18T20:38:37.901Z,4.47
2022-08-18T20:41:23.431Z,3.65
2022-08-18T20:43:53.645Z,3.85
2022-08-18T20:46:32.569Z,4.70
2022-08-18T20:49:36.376Z,4.45
2022-08-18T20:52:20.096Z,3.25
2022-08-18T20:55:11.827Z,3.85
2022-08-18T20:57:38.882Z,3.33
2022-08-18T21:00:14.592Z,2.40
2022-08-18T21:02:51.412Z,4.63
2022-08-18T21:05:36.557Z,3.70
2022-08-18T21:08:24.919Z,3.63
2022-08-18T21:10:58.212Z,3.92
2022-08-18T21:13:32.390Z,3.13
2022-08-18T21:15:59.739Z,5.10
2022-08-18T21:18:27.215Z,7.22
2022-08-18T21:20:57.120Z,5.07
2022-08-18T21:23:29.714Z,2.72
2022-08-18T21:26:12.574Z,3.40
2022-08-18T21:28:43.231Z,5.75
2022-08-18T21:31:43.040Z,3.10
2022-08-18T21:34:29.597Z,2.63
2022-08-18T21:36:58.141Z,4.97
2022-08-18T21:39:25.097Z,3.08
2022-08-18T21:41:57.498Z,5.25
2022-08-18T21:44:41.677Z,5.50
2022-08-18T21:47:17.623Z,6.90
2022-08-18T21:49:57.732Z,4.10
2022-08-18T21:52:26.528Z,2.60
2022-08-18T21:54:57.518Z,2.97
2022-08-18T21:57:27.405Z,8.18
2022-08-18T22:00:16.946Z,3.47
2022-08-18T22:02:44.022Z,5.10
2022-08-18T22:05:12.265Z,4.00
2022-08-18T22:07:47.225Z,4.47
2022-08-18T22:10:48.119Z,4.03
2022-08-18T22:13:43.317Z,6.18
2022-08-18T22:16:36.050Z,6.05
2022-08-18T22:19:19.276Z,6.97
2022-08-18T22:21:55.719Z,6.97
2022-08-18T22:24:34.231Z,7.40
2022-08-18T22:27:00.682Z,8.50
2022-08-18T22:29:31.600Z,7.22
2022-08-18T22:31:59.549Z,6.80
2022-08-18T22:34:32.068Z,7.20
2022-08-18T22:37:02.908Z,7.50
2022-08-18T22:39:34.573Z,8.20
2022-08-18T22:42:02.339Z,8.18
2022-08-18T22:44:29.579Z,7.47
2022-08-18T22:46:56.055Z,6.18
2022-08-18T22:49:23.384Z,8.15
2022-08-18T22:51:53.583Z,5.85
2022-08-18T22:54:21.481Z,7.50
2022-08-18T22:56:56.356Z,7.05
2022-08-18T22:59:25.522Z,10.15
2022-08-18T23:01:54.403Z,5.15
2022-08-18T23:04:22.705Z,7.68
2022-08-18T23:06:52.291Z,9.18
2022-08-18T23:09:21.204Z,8.32
2022-08-18T23:11:47.742Z,7.35
2022-08-18T23:14:14.480Z,6.90
2022-08-18T23:16:45.307Z,7.10
2022-08-18T23:19:15.244Z,6.53
2022-08-18T23:21:42.182Z,6.13
2022-08-18T23:24:11.031Z,5.72
2022-08-18T23:26:37.689Z,7.90
2022-08-18T23:29:05.412Z,8.35
2022-08-18T23:34:00.611Z,9.30
2022-08-18T23:36:29.282Z,6.88
2022-08-18T23:38:55.874Z,6.53
2022-08-18T23:41:23.170Z,8.43
2022-08-18T23:43:50.848Z,8.00
2022-08-18T23:46:22.808Z,6.50
2022-08-18T23:48:51.474Z,8.23
2022-08-18T23:51:29.409Z,8.05
2022-08-18T23:54:00.148Z,7.60
2022-08-18T23:56:29.388Z,8.35
2022-08-18T23:58:57.242Z,9.13
